createdAt,value
2019-05-18T00:00:15.382Z,0.00
2019-05-18T00:01:15.286Z,0.00
2019-05-18T00:02:15.192Z,0.00
2019-05-18T00:03:15.093Z,0.00
2019-05-18T00:04:15.118Z,0.00
2019-05-18T00:05:14.898Z,0.00
2019-05-18T00:06:14.856Z,0.00
2019-05-18T00:07:14.705Z,0.00
2019-05-18T00:08:14.610Z,0.00
2019-05-18T00:09:14.524Z,0.00
2019-05-18T00:10:14.414Z,0.00
2019-05-18T00:11:14.482Z,0.00
2019-05-18T00:12:14.221Z,0.00
2019-05-18T00:13:14.131Z,0.00
2019-05-18T00:14:14.040Z,0.00
2019-05-18T00:15:13.946Z,0.00
2019-05-18T00:16:13.832Z,0.00
2019-05-18T00:17:25.042Z,0.00
2019-05-18T00:18:13.739Z,0.00
2019-05-18T00:19:13.560Z,0.00
2019-05-18T00:20:13.452Z,0.00
2019-05-18T00:21:13.351Z,0.00
2019-05-18T00:22:13.255Z,0.00
2019-05-18T00:23:13.154Z,0.00
2019-05-18T00:24:13.071Z,0.00
2019-05-18T00:25:12.965Z,0.00
2019-05-18T00:26:12.864Z,0.00
2019-05-18T00:27:12.770Z,0.00
2019-05-18T00:28:12.670Z,0.00
2019-05-18T00:29:12.586Z,0.00
2019-05-18T00:30:12.474Z,0.00
2019-05-18T00:31:12.378Z,0.00
2019-05-18T00:32:12.412Z,0.00
2019-05-18T00:33:12.186Z,0.00
2019-05-18T00:34:12.102Z,0.00
2019-05-18T00:35:11.991Z,0.00
2019-05-18T00:36:11.893Z,0.00
2019-05-18T00:37:11.797Z,0.00
2019-05-18T00:38:11.702Z,0.00
2019-05-18T00:39:11.619Z,0.00
2019-05-18T00:40:11.507Z,0.00
2019-05-18T00:41:11.407Z,0.00
2019-05-18T00:42:11.311Z,0.00
2019-05-18T00:43:11.215Z,0.00
2019-05-18T00:44:11.135Z,0.00
2019-05-18T00:45:11.020Z,0.00
2019-05-18T00:46:10.930Z,0.00
2019-05-18T00:47:10.825Z,0.00
2019-05-18T00:48:10.741Z,0.00
2019-05-18T00:49:10.648Z,0.00
2019-05-18T00:50:10.538Z,0.00
2019-05-18T00:51:10.441Z,0.00
2019-05-18T00:52:10.445Z,0.00
2019-05-18T00:53:10.243Z,0.00
2019-05-18T00:54:10.160Z,0.00
2019-05-18T00:55:10.054Z,0.00
2019-05-18T00:56:09.950Z,0.00
2019-05-18T00:57:09.872Z,0.00
2019-05-18T00:58:09.760Z,0.00
2019-05-18T00:59:09.664Z,0.00
2019-05-18T01:00:09.576Z,0.00
2019-05-18T01:01:09.469Z,0.00
2019-05-18T01:02:09.377Z,0.00
2019-05-18T01:03:09.274Z,0.00
2019-05-18T01:04:09.180Z,0.00
2019-05-18T01:05:09.093Z,0.00
2019-05-18T01:06:08.983Z,0.00
2019-05-18T01:07:08.895Z,0.00
2019-05-18T01:08:08.788Z,0.00
2019-05-18T01:09:08.692Z,0.00
2019-05-18T01:10:08.615Z,0.00
2019-05-18T01:11:08.496Z,0.00
2019-05-18T01:12:08.395Z,0.00
2019-05-18T01:13:08.300Z,0.00
2019-05-18T01:14:08.215Z,0.00
2019-05-18T01:15:08.121Z,0.00
2019-05-18T01:16:08.011Z,0.00
2019-05-18T01:17:07.911Z,0.00
2019-05-18T01:18:07.814Z,0.00
2019-05-18T01:19:07.719Z,0.00
2019-05-18T01:20:07.633Z,0.00
2019-05-18T01:21:07.537Z,0.00
2019-05-18T01:22:07.429Z,0.00
2019-05-18T01:23:07.331Z,0.00
2019-05-18T01:24:07.241Z,0.00
2019-05-18T01:25:07.150Z,0.00
2019-05-18T01:26:07.043Z,0.00
2019-05-18T01:27:06.940Z,0.00
2019-05-18T01:28:06.840Z,0.00
2019-05-18T01:29:06.745Z,0.00
2019-05-18T01:30:06.664Z,0.00
2019-05-18T01:31:06.558Z,0.00
2019-05-18T01:32:06.454Z,0.00
2019-05-18T01:33:06.358Z,0.00
2019-05-18T01:34:06.260Z,0.00
2019-05-18T01:35:06.175Z,0.00
2019-05-18T01:36:06.066Z,0.00
2019-05-18T01:37:05.968Z,0.00
2019-05-18T01:38:05.872Z,0.00
2019-05-18T01:39:05.783Z,0.00
2019-05-18T01:40:05.691Z,0.00
2019-05-18T01:41:05.581Z,0.00
2019-05-18T01:42:05.486Z,0.00
2019-05-18T01:43:05.384Z,0.00
2019-05-18T01:44:05.288Z,0.00
2019-05-18T01:45:16.504Z,0.00
2019-05-18T01:46:05.094Z,0.00
2019-05-18T01:47:04.996Z,0.00
2019-05-18T01:48:13.177Z,0.00
2019-05-18T01:49:04.802Z,0.00
2019-05-18T01:50:04.721Z,0.00
2019-05-18T01:51:04.608Z,0.00
2019-05-18T01:52:04.510Z,0.00
2019-05-18T01:53:04.424Z,0.00
2019-05-18T01:54:04.316Z,0.00
2019-05-18T01:55:04.235Z,0.00
2019-05-18T01:56:04.120Z,0.00
2019-05-18T01:57:04.024Z,0.00
2019-05-18T01:58:03.925Z,0.00
2019-05-18T01:59:03.830Z,0.00
2019-05-18T02:00:03.768Z,0.00
2019-05-18T02:01:03.634Z,0.00
2019-05-18T02:02:03.537Z,0.00
2019-05-18T02:03:03.439Z,0.00
2019-05-18T02:04:03.347Z,0.00
2019-05-18T02:05:03.261Z,0.00
2019-05-18T02:06:03.151Z,0.00
2019-05-18T02:07:03.083Z,0.00
2019-05-18T02:08:02.953Z,0.00
2019-05-18T02:09:02.962Z,0.00
2019-05-18T02:10:02.821Z,0.00
2019-05-18T02:11:02.672Z,0.00
2019-05-18T02:12:02.566Z,0.00
2019-05-18T02:13:02.911Z,0.00
2019-05-18T02:14:02.391Z,0.00
2019-05-18T02:15:02.415Z,0.00
2019-05-18T02:16:02.305Z,0.00
2019-05-18T02:17:02.097Z,0.00
2019-05-18T02:18:01.978Z,0.00
2019-05-18T02:19:01.882Z,0.00
2019-05-18T02:20:01.796Z,0.00
2019-05-18T02:21:01.702Z,0.00
2019-05-18T02:22:01.588Z,0.00
2019-05-18T02:23:01.490Z,0.00
2019-05-18T02:24:01.395Z,0.00
2019-05-18T02:25:01.301Z,0.00
2019-05-18T02:26:01.215Z,0.00
2019-05-18T02:27:01.103Z,0.00
2019-05-18T02:28:01.004Z,0.00
2019-05-18T02:29:00.909Z,0.00
2019-05-18T02:30:00.817Z,0.00
2019-05-18T02:31:00.729Z,0.00
2019-05-18T02:32:00.616Z,0.00
2019-05-18T02:33:00.519Z,0.00
2019-05-18T02:34:00.422Z,0.00
2019-05-18T02:35:00.334Z,0.00
2019-05-18T02:36:00.250Z,0.00
2019-05-18T02:37:00.143Z,0.00
2019-05-18T02:38:00.031Z,0.00
2019-05-18T02:38:59.931Z,0.00
2019-05-18T02:39:59.835Z,0.00
2019-05-18T02:40:59.758Z,0.00
2019-05-18T02:41:59.657Z,0.00
2019-05-18T02:42:59.543Z,4.00
2019-05-18T02:43:59.445Z,4.00
2019-05-18T02:44:59.666Z,4.00
2019-05-18T02:45:59.268Z,0.00
2019-05-18T02:46:59.151Z,4.00
2019-05-18T02:47:59.065Z,4.00
2019-05-18T02:48:58.957Z,8.00
2019-05-18T02:49:58.865Z,4.00
2019-05-18T02:50:58.777Z,8.00
2019-05-18T02:51:58.795Z,8.00
2019-05-18T02:52:58.570Z,12.00
2019-05-18T02:53:58.468Z,12.00
2019-05-18T02:54:58.370Z,12.00
2019-05-18T02:55:58.291Z,16.00
2019-05-18T02:56:58.175Z,16.00
2019-05-18T02:57:58.078Z,24.00
2019-05-18T02:58:58.086Z,24.00
2019-05-18T02:59:57.885Z,28.00
2019-05-18T03:00:57.806Z,32.00
2019-05-18T03:01:57.688Z,36.00
2019-05-18T03:02:57.592Z,40.00
2019-05-18T03:03:57.492Z,48.00
2019-05-18T03:04:57.397Z,56.00
2019-05-18T03:05:57.414Z,64.00
2019-05-18T03:06:57.200Z,68.00
2019-05-18T03:07:57.103Z,80.00
2019-05-18T03:08:57.007Z,88.00
2019-05-18T03:09:56.907Z,96.00
2019-05-18T03:10:56.841Z,108.00
2019-05-18T03:11:56.715Z,124.00
2019-05-18T03:12:56.722Z,140.00
2019-05-18T03:13:56.514Z,152.00
2019-05-18T03:14:56.417Z,172.00
2019-05-18T03:15:56.339Z,192.00
2019-05-18T03:16:56.221Z,212.00
2019-05-18T03:17:56.126Z,232.00
2019-05-18T03:19:07.421Z,252.00
2019-05-18T03:19:55.926Z,280.00
2019-05-18T03:20:55.852Z,304.00
2019-05-18T03:21:55.737Z,332.00
2019-05-18T03:22:55.638Z,356.00
2019-05-18T03:23:55.539Z,384.00
2019-05-18T03:24:55.440Z,412.00
2019-05-18T03:25:55.357Z,440.00
2019-05-18T03:26:55.348Z,476.00
2019-05-18T03:27:55.148Z,504.00
2019-05-18T03:28:55.049Z,540.00
2019-05-18T03:29:54.955Z,572.00
2019-05-18T03:30:54.956Z,612.00
2019-05-18T03:31:54.756Z,648.00
2019-05-18T03:32:54.677Z,684.00
2019-05-18T03:33:54.575Z,724.00
2019-05-18T03:34:54.496Z,760.00
2019-05-18T03:35:54.386Z,800.00
2019-05-18T03:36:54.277Z,836.00
2019-05-18T03:37:54.169Z,876.00
2019-05-18T03:38:54.081Z,916.00
2019-05-18T03:39:53.972Z,960.00
2019-05-18T03:40:53.893Z,1000.00
2019-05-18T03:41:53.778Z,1036.00
2019-05-18T03:42:53.679Z,1088.00
2019-05-18T03:43:53.588Z,1128.00
2019-05-18T03:44:53.486Z,1168.00
2019-05-18T03:45:53.389Z,1212.00
2019-05-18T03:46:53.301Z,1260.00
2019-05-18T03:47:53.189Z,1300.00
2019-05-18T03:48:53.112Z,1340.00
2019-05-18T03:49:53.012Z,1392.00
2019-05-18T03:50:52.914Z,1428.00
2019-05-18T03:51:52.816Z,1480.00
2019-05-18T03:52:52.707Z,1512.00
2019-05-18T03:53:52.609Z,1544.00
2019-05-18T03:54:52.503Z,1652.00
2019-05-18T03:55:52.483Z,1632.00
2019-05-18T03:56:52.324Z,1664.00
2019-05-18T03:57:52.211Z,1736.00
2019-05-18T03:58:52.115Z,1788.00
2019-05-18T03:59:52.016Z,1856.00
2019-05-18T04:00:51.918Z,1896.00
2019-05-18T04:01:51.843Z,1892.00
2019-05-18T04:02:51.725Z,1960.00
2019-05-18T04:03:51.621Z,2040.00
2019-05-18T04:04:51.528Z,2084.00
2019-05-18T04:05:51.426Z,2116.00
2019-05-18T04:06:51.343Z,2184.00
2019-05-18T04:07:51.240Z,2240.00
2019-05-18T04:08:51.131Z,2276.00
2019-05-18T04:09:51.033Z,2292.00
2019-05-18T04:10:50.961Z,2452.00
2019-05-18T04:11:50.856Z,2336.00
2019-05-18T04:12:50.741Z,2412.00
2019-05-18T04:13:50.643Z,2536.00
2019-05-18T04:14:50.546Z,2468.00
2019-05-18T04:15:50.448Z,2468.00
2019-05-18T04:16:50.369Z,2520.00
2019-05-18T04:17:50.249Z,2596.00
2019-05-18T04:18:50.180Z,2520.00
2019-05-18T04:19:50.055Z,2748.00
2019-05-18T04:20:49.971Z,2748.00
2019-05-18T04:21:49.872Z,2680.00
2019-05-18T04:22:49.760Z,3068.00
2019-05-18T04:23:49.666Z,3220.00
2019-05-18T04:24:49.563Z,2716.00
2019-05-18T04:25:49.466Z,2908.00
2019-05-18T04:26:49.382Z,2912.00
2019-05-18T04:27:49.268Z,3012.00
2019-05-18T04:28:49.171Z,3168.00
2019-05-18T04:29:49.088Z,2896.00
2019-05-18T04:30:48.975Z,3324.00
2019-05-18T04:31:48.890Z,2904.00
2019-05-18T04:32:48.781Z,3008.00
2019-05-18T04:33:48.682Z,3532.00
2019-05-18T04:34:48.583Z,3120.00
2019-05-18T04:35:48.489Z,3720.00
2019-05-18T04:36:48.402Z,4472.00
2019-05-18T04:37:48.289Z,3372.00
2019-05-18T04:38:48.210Z,3928.00
2019-05-18T04:39:48.096Z,3892.00
2019-05-18T04:40:47.997Z,3992.00
2019-05-18T04:41:47.912Z,3268.00
2019-05-18T04:42:47.809Z,4108.00
2019-05-18T04:43:47.702Z,3532.00
2019-05-18T04:44:47.605Z,4912.00
2019-05-18T04:45:47.504Z,4540.00
2019-05-18T04:46:47.413Z,4876.00
2019-05-18T04:47:48.737Z,4572.00
2019-05-18T04:48:47.213Z,4432.00
2019-05-18T04:50:03.951Z,4080.00
2019-05-18T04:50:47.020Z,4624.00
2019-05-18T04:51:46.920Z,5268.00
2019-05-18T04:52:46.837Z,4360.00
2019-05-18T04:53:46.724Z,4764.00
2019-05-18T04:54:46.630Z,5436.00
2019-05-18T04:55:46.526Z,4664.00
2019-05-18T04:56:46.435Z,4656.00
2019-05-18T04:57:46.357Z,4812.00
2019-05-18T04:58:46.238Z,4680.00
2019-05-18T04:59:46.137Z,4804.00
2019-05-18T05:00:46.039Z,5056.00
2019-05-18T05:01:45.946Z,5176.00
2019-05-18T05:02:45.856Z,4524.00
2019-05-18T05:03:45.762Z,6328.00
2019-05-18T05:04:45.646Z,5804.00
2019-05-18T05:05:45.556Z,6752.00
2019-05-18T05:06:45.452Z,4660.00
2019-05-18T05:07:45.371Z,6740.00
2019-05-18T05:08:45.257Z,5796.00
2019-05-18T05:09:45.166Z,7320.00
2019-05-18T05:10:45.163Z,7828.00
2019-05-18T05:11:44.962Z,7976.00
2019-05-18T05:12:44.888Z,9540.00
2019-05-18T05:13:44.768Z,8852.00
2019-05-18T05:14:44.674Z,8868.00
2019-05-18T05:15:44.577Z,7340.00
2019-05-18T05:16:44.478Z,8160.00
2019-05-18T05:17:44.553Z,9700.00
2019-05-18T05:18:44.280Z,10256.00
2019-05-18T05:19:44.185Z,9064.00
2019-05-18T05:20:44.107Z,10140.00
2019-05-18T05:21:43.989Z,7156.00
2019-05-18T05:22:43.924Z,8052.00
2019-05-18T05:23:43.794Z,9300.00
2019-05-18T05:24:43.807Z,9420.00
2019-05-18T05:25:43.599Z,8620.00
2019-05-18T05:26:43.506Z,9924.00
2019-05-18T05:27:43.419Z,6116.00
2019-05-18T05:28:43.306Z,7224.00
2019-05-18T05:29:43.212Z,9864.00
2019-05-18T05:30:43.112Z,8556.00
2019-05-18T05:31:43.117Z,8340.00
2019-05-18T05:32:42.936Z,8836.00
2019-05-18T05:33:42.819Z,8492.00
2019-05-18T05:34:42.724Z,8236.00
2019-05-18T05:35:42.626Z,7108.00
2019-05-18T05:36:42.530Z,8080.00
2019-05-18T05:37:42.445Z,7436.00
2019-05-18T05:38:42.440Z,9928.00
2019-05-18T05:39:42.245Z,9292.00
2019-05-18T05:40:42.139Z,8176.00
2019-05-18T05:41:42.045Z,7908.00
2019-05-18T05:42:41.962Z,7580.00
2019-05-18T05:43:41.846Z,9752.00
2019-05-18T05:44:41.767Z,8112.00
2019-05-18T05:45:41.760Z,8892.00
2019-05-18T05:46:41.559Z,8812.00
2019-05-18T05:47:41.472Z,8208.00
2019-05-18T05:48:41.362Z,7900.00
2019-05-18T05:49:41.266Z,9544.00
2019-05-18T05:50:41.168Z,8248.00
2019-05-18T05:51:41.071Z,8160.00
2019-05-18T05:52:41.235Z,8848.00
2019-05-18T05:53:40.890Z,9000.00
2019-05-18T05:54:40.779Z,8464.00
2019-05-18T05:55:40.682Z,9976.00
2019-05-18T05:56:40.596Z,9728.00
2019-05-18T05:57:40.491Z,10832.00
2019-05-18T05:58:40.403Z,10408.00
2019-05-18T05:59:40.399Z,9608.00
2019-05-18T06:00:40.199Z,10808.00
2019-05-18T06:01:40.099Z,11572.00
2019-05-18T06:02:40.007Z,11488.00
2019-05-18T06:03:39.917Z,11236.00
2019-05-18T06:04:39.811Z,10568.00
2019-05-18T06:05:39.709Z,12964.00
2019-05-18T06:06:39.731Z,11780.00
2019-05-18T06:07:39.524Z,11696.00
2019-05-18T06:08:39.434Z,13864.00
2019-05-18T06:09:39.322Z,10352.00
2019-05-18T06:10:39.225Z,13020.00
2019-05-18T06:11:39.130Z,10944.00
2019-05-18T06:12:39.037Z,12580.00
2019-05-18T06:13:39.052Z,14356.00
2019-05-18T06:14:38.837Z,12684.00
2019-05-18T06:15:38.773Z,12016.00
2019-05-18T06:16:38.643Z,15192.00
2019-05-18T06:17:38.549Z,16256.00
2019-05-18T06:18:38.465Z,14748.00
2019-05-18T06:19:38.458Z,19520.00
2019-05-18T06:20:50.503Z,16332.00
2019-05-18T06:21:38.165Z,18976.00
2019-05-18T06:22:38.072Z,19104.00
2019-05-18T06:23:38.005Z,17076.00
2019-05-18T06:24:37.936Z,16516.00
2019-05-18T06:25:37.784Z,19776.00
2019-05-18T06:26:37.678Z,20224.00
2019-05-18T06:27:37.580Z,16560.00
2019-05-18T06:28:37.499Z,17196.00
2019-05-18T06:29:37.386Z,19456.00
2019-05-18T06:30:37.291Z,15488.00
2019-05-18T06:31:37.194Z,17108.00
2019-05-18T06:32:37.097Z,15308.00
2019-05-18T06:33:37.015Z,18272.00
2019-05-18T06:34:36.907Z,16984.00
2019-05-18T06:35:36.813Z,21824.00
2019-05-18T06:36:36.714Z,15328.00
2019-05-18T06:37:36.621Z,18720.00
2019-05-18T06:38:36.535Z,16756.00
2019-05-18T06:39:36.431Z,16168.00
2019-05-18T06:40:36.327Z,20576.00
2019-05-18T06:41:36.234Z,17096.00
2019-05-18T06:42:36.166Z,17440.00
2019-05-18T06:43:36.053Z,18240.00
2019-05-18T06:44:35.946Z,17792.00
2019-05-18T06:45:35.847Z,19616.00
2019-05-18T06:46:35.751Z,16708.00
2019-05-18T06:47:35.658Z,17664.00
2019-05-18T06:48:35.573Z,18784.00
2019-05-18T06:49:35.462Z,18816.00
2019-05-18T06:50:35.367Z,20096.00
2019-05-18T06:51:35.272Z,22688.00
2019-05-18T06:52:35.175Z,21408.00
2019-05-18T06:53:35.097Z,23872.00
2019-05-18T06:54:34.986Z,24896.00
2019-05-18T06:55:34.891Z,25216.00
2019-05-18T06:56:34.791Z,19072.00
2019-05-18T06:57:34.696Z,20480.00
2019-05-18T06:58:34.613Z,18656.00
2019-05-18T06:59:34.503Z,22496.00
2019-05-18T07:00:34.411Z,18720.00
2019-05-18T07:01:34.314Z,18944.00
2019-05-18T07:02:34.220Z,16680.00
2019-05-18T07:03:34.137Z,15688.00
2019-05-18T07:04:34.026Z,16096.00
2019-05-18T07:05:33.933Z,18144.00
2019-05-18T07:06:33.839Z,19008.00
2019-05-18T07:07:33.740Z,15868.00
2019-05-18T07:08:33.658Z,16944.00
2019-05-18T07:09:33.550Z,18208.00
2019-05-18T07:10:33.456Z,17952.00
2019-05-18T07:11:33.361Z,20160.00
2019-05-18T07:12:33.260Z,18080.00
2019-05-18T07:13:33.201Z,17504.00
2019-05-18T07:14:33.085Z,21600.00
2019-05-18T07:15:32.975Z,23552.00
2019-05-18T07:16:32.883Z,23040.00
2019-05-18T07:17:34.618Z,25664.00
2019-05-18T07:18:32.692Z,21952.00
2019-05-18T07:19:32.640Z,26208.00
2019-05-18T07:20:32.498Z,25024.00
2019-05-18T07:21:32.404Z,25888.00
2019-05-18T07:22:32.417Z,25088.00
2019-05-18T07:23:32.214Z,24608.00
2019-05-18T07:24:32.133Z,23968.00
2019-05-18T07:25:32.024Z,28288.00
2019-05-18T07:26:31.927Z,28736.00
2019-05-18T07:27:31.835Z,29664.00
2019-05-18T07:28:31.738Z,28896.00
2019-05-18T07:29:31.764Z,32256.00
2019-05-18T07:30:31.548Z,28256.00
2019-05-18T07:31:31.455Z,26432.00
2019-05-18T07:32:31.357Z,30048.00
2019-05-18T07:33:31.262Z,26304.00
2019-05-18T07:34:31.181Z,27200.00
2019-05-18T07:35:31.087Z,29696.00
2019-05-18T07:36:31.084Z,27744.00
2019-05-18T07:37:30.918Z,28768.00
2019-05-18T07:38:30.789Z,27424.00
2019-05-18T07:39:30.707Z,27744.00
2019-05-18T07:40:30.612Z,46080.00
2019-05-18T07:41:44.513Z,29728.00
2019-05-18T07:42:30.410Z,37088.00
2019-05-18T07:43:30.420Z,64512.00
2019-05-18T07:44:30.235Z,39168.00
2019-05-18T07:45:30.124Z,28000.00
2019-05-18T07:46:30.030Z,28576.00
2019-05-18T07:47:29.938Z,28288.00
2019-05-18T07:48:29.843Z,27360.00
2019-05-18T07:49:29.762Z,25568.00
2019-05-18T07:50:29.764Z,30368.00
2019-05-18T07:51:37.226Z,57504.00
2019-05-18T07:52:29.463Z,33920.00
2019-05-18T07:53:29.375Z,36000.00
2019-05-18T07:54:29.415Z,38944.00
2019-05-18T07:55:29.182Z,36768.00
2019-05-18T07:56:29.089Z,37088.00
2019-05-18T07:57:29.103Z,60704.00
2019-05-18T07:58:28.900Z,52704.00
2019-05-18T07:59:28.822Z,84992.00
2019-05-18T08:00:28.716Z,44576.00
2019-05-18T08:01:28.628Z,44512.00
2019-05-18T08:02:28.528Z,84576.00
2019-05-18T08:03:28.432Z,48480.00
2019-05-18T08:04:28.460Z,50144.00
2019-05-18T08:05:28.248Z,69984.00
2019-05-18T08:06:28.151Z,36128.00
2019-05-18T08:07:28.061Z,76864.00
2019-05-18T08:08:27.964Z,46688.00
2019-05-18T08:09:27.886Z,41216.00
2019-05-18T08:10:27.779Z,60224.00
2019-05-18T08:11:27.793Z,58368.00
2019-05-18T08:12:27.593Z,47872.00
2019-05-18T08:13:27.502Z,56000.00
2019-05-18T08:14:27.424Z,45440.00
2019-05-18T08:15:27.313Z,80032.00
2019-05-18T08:16:27.221Z,51072.00
2019-05-18T08:17:27.130Z,87712.00
2019-05-18T08:18:27.157Z,54880.00
2019-05-18T08:19:26.955Z,36800.00
2019-05-18T08:20:26.860Z,36864.00
2019-05-18T08:21:26.758Z,41600.00
2019-05-18T08:22:26.673Z,49184.00
2019-05-18T08:23:26.576Z,38784.00
2019-05-18T08:24:26.491Z,44064.00
2019-05-18T08:25:26.411Z,50336.00
2019-05-18T08:26:26.306Z,47296.00
2019-05-18T08:27:26.210Z,51200.00
2019-05-18T08:28:26.116Z,56800.00
2019-05-18T08:29:26.031Z,63936.00
2019-05-18T08:30:25.948Z,53280.00
2019-05-18T08:31:25.839Z,83776.00
2019-05-18T08:32:25.749Z,48064.00
2019-05-18T08:33:25.654Z,91808.00
2019-05-18T08:34:25.564Z,60768.00
2019-05-18T08:35:27.325Z,44352.00
2019-05-18T08:36:25.378Z,31936.00
2019-05-18T08:37:25.287Z,77504.00
2019-05-18T08:38:25.480Z,49952.00
2019-05-18T08:39:25.129Z,33056.00
2019-05-18T08:40:25.026Z,80512.00
2019-05-18T08:41:24.923Z,94656.00
2019-05-18T08:42:24.835Z,66720.00
2019-05-18T08:43:24.739Z,87104.00
2019-05-18T08:44:24.644Z,92224.00
2019-05-18T08:45:24.694Z,90656.00
2019-05-18T08:46:24.461Z,87072.00
2019-05-18T08:47:24.373Z,84832.00
2019-05-18T08:48:24.278Z,86720.00
2019-05-18T08:49:24.188Z,88032.00
2019-05-18T08:50:24.115Z,86144.00
2019-05-18T08:51:24.008Z,83328.00
2019-05-18T08:52:24.024Z,77024.00
2019-05-18T08:53:23.825Z,75424.00
2019-05-18T08:54:23.734Z,66784.00
2019-05-18T08:55:23.659Z,72128.00
2019-05-18T08:56:23.553Z,85696.00
2019-05-18T08:57:23.462Z,86784.00
2019-05-18T08:58:23.374Z,90336.00
2019-05-18T08:59:23.394Z,88224.00
2019-05-18T09:00:23.233Z,101120.00
2019-05-18T09:01:23.105Z,101952.00
2019-05-18T09:02:23.013Z,104704.00
2019-05-18T09:03:22.920Z,104512.00
2019-05-18T09:04:22.829Z,103424.00
2019-05-18T09:05:22.860Z,115968.00
2019-05-18T09:06:22.671Z,107552.00
2019-05-18T09:07:22.562Z,100864.00
2019-05-18T09:08:22.482Z,106112.00
2019-05-18T09:09:22.383Z,100864.00
2019-05-18T09:10:22.308Z,99488.00
2019-05-18T09:11:22.203Z,106016.00
2019-05-18T09:12:22.115Z,110272.00
2019-05-18T09:13:22.028Z,104736.00
2019-05-18T09:14:21.937Z,107072.00
2019-05-18T09:15:21.920Z,103136.00
2019-05-18T09:16:21.759Z,94688.00
2019-05-18T09:17:21.670Z,98176.00
2019-05-18T09:18:21.584Z,102848.00
2019-05-18T09:19:21.493Z,102912.00
2019-05-18T09:20:21.498Z,97952.00
2019-05-18T09:21:21.316Z,104416.00
2019-05-18T09:22:23.331Z,108224.00
2019-05-18T09:23:21.135Z,118336.00
2019-05-18T09:24:21.047Z,108544.00
2019-05-18T09:25:20.976Z,97856.00
2019-05-18T09:26:20.984Z,92096.00
2019-05-18T09:27:20.782Z,87712.00
2019-05-18T09:28:20.692Z,85280.00
2019-05-18T09:29:20.636Z,88320.00
2019-05-18T09:30:20.515Z,98464.00
2019-05-18T09:31:20.440Z,106592.00
2019-05-18T09:32:20.337Z,113504.00
2019-05-18T09:33:20.250Z,101344.00
2019-05-18T09:34:20.160Z,102144.00
2019-05-18T09:35:20.084Z,96864.00
2019-05-18T09:36:19.988Z,104512.00
2019-05-18T09:37:19.892Z,104448.00
2019-05-18T09:38:19.809Z,104800.00
2019-05-18T09:39:19.715Z,115744.00
2019-05-18T09:40:19.638Z,118144.00
2019-05-18T09:41:19.542Z,100256.00
2019-05-18T09:42:19.451Z,103040.00
2019-05-18T09:43:19.358Z,114560.00
2019-05-18T09:44:19.270Z,111936.00
2019-05-18T09:45:19.184Z,110080.00
2019-05-18T09:46:19.115Z,107584.00
2019-05-18T09:47:19.004Z,105600.00
2019-05-18T09:48:18.935Z,100288.00
2019-05-18T09:49:18.828Z,99136.00
2019-05-18T09:50:18.742Z,104160.00
2019-05-18T09:51:18.663Z,110272.00
2019-05-18T09:52:18.560Z,108160.00
2019-05-18T09:53:18.582Z,111872.00
2019-05-18T09:54:18.383Z,109344.00
2019-05-18T09:55:18.295Z,115616.00
2019-05-18T09:56:18.218Z,112480.00
2019-05-18T09:57:18.122Z,114944.00
2019-05-18T09:58:18.034Z,103584.00
2019-05-18T09:59:17.943Z,106784.00
2019-05-18T10:00:17.852Z,115168.00
2019-05-18T10:01:17.778Z,111520.00
2019-05-18T10:02:17.676Z,113248.00
2019-05-18T10:03:17.586Z,113632.00
2019-05-18T10:04:17.505Z,105952.00
2019-05-18T10:05:17.408Z,101600.00
2019-05-18T10:06:17.333Z,102976.00
2019-05-18T10:07:17.230Z,99776.00
2019-05-18T10:08:17.142Z,95360.00
2019-05-18T10:09:17.058Z,92128.00
2019-05-18T10:10:16.976Z,91520.00
2019-05-18T10:11:16.894Z,91968.00
2019-05-18T10:12:16.792Z,81760.00
2019-05-18T10:13:16.702Z,85408.00
2019-05-18T10:14:16.615Z,91648.00
2019-05-18T10:15:16.535Z,92512.00
2019-05-18T10:16:16.454Z,97760.00
2019-05-18T10:17:16.349Z,90144.00
2019-05-18T10:18:16.263Z,84032.00
2019-05-18T10:19:16.174Z,83584.00
2019-05-18T10:20:16.199Z,85120.00
2019-05-18T10:21:16.011Z,85600.00
2019-05-18T10:22:15.908Z,88128.00
2019-05-18T10:23:15.830Z,100800.00
2019-05-18T10:24:15.733Z,95840.00
2019-05-18T10:25:15.646Z,93344.00
2019-05-18T10:26:15.571Z,94368.00
2019-05-18T10:27:15.574Z,102560.00
2019-05-18T10:28:15.383Z,106336.00
2019-05-18T10:29:15.293Z,112224.00
2019-05-18T10:30:15.212Z,117600.00
2019-05-18T10:31:15.130Z,115936.00
2019-05-18T10:32:15.049Z,112320.00
2019-05-18T10:33:14.943Z,99936.00
2019-05-18T10:34:14.855Z,97920.00
2019-05-18T10:35:14.766Z,103264.00
2019-05-18T10:36:14.698Z,98848.00
2019-05-18T10:37:14.588Z,107808.00
2019-05-18T10:38:14.500Z,103968.00
2019-05-18T10:39:14.416Z,101664.00
2019-05-18T10:40:14.324Z,113088.00
2019-05-18T10:41:14.251Z,117664.00
2019-05-18T10:42:14.147Z,114016.00
2019-05-18T10:43:14.059Z,122016.00
2019-05-18T10:44:13.972Z,108416.00
2019-05-18T10:45:13.886Z,114816.00
2019-05-18T10:46:13.814Z,129984.00
2019-05-18T10:47:13.711Z,113312.00
2019-05-18T10:48:13.687Z,126784.00
2019-05-18T10:49:13.544Z,115744.00
2019-05-18T10:50:13.450Z,114400.00
2019-05-18T10:51:13.375Z,117024.00
2019-05-18T10:52:13.271Z,92704.00
2019-05-18T10:53:27.462Z,90656.00
2019-05-18T10:54:13.095Z,100192.00
2019-05-18T10:55:13.009Z,95968.00
2019-05-18T10:56:12.924Z,97312.00
2019-05-18T10:57:12.849Z,110912.00
2019-05-18T10:58:12.784Z,106400.00
2019-05-18T10:59:12.660Z,117376.00
2019-05-18T11:00:12.635Z,134912.00
2019-05-18T11:01:12.484Z,116544.00
2019-05-18T11:02:12.406Z,116640.00
2019-05-18T11:03:12.305Z,106016.00
2019-05-18T11:04:12.228Z,109440.00
2019-05-18T11:05:12.131Z,119360.00
2019-05-18T11:06:12.054Z,125920.00
2019-05-18T11:07:11.965Z,122752.00
2019-05-18T11:08:11.867Z,115104.00
2019-05-18T11:09:11.781Z,114944.00
2019-05-18T11:10:11.693Z,114528.00
2019-05-18T11:11:11.610Z,120864.00
2019-05-18T11:12:11.531Z,116192.00
2019-05-18T11:13:11.434Z,109056.00
2019-05-18T11:14:11.343Z,108448.00
2019-05-18T11:15:11.265Z,105760.00
2019-05-18T11:16:11.178Z,109728.00
2019-05-18T11:17:11.092Z,116000.00
2019-05-18T11:18:10.995Z,103520.00
2019-05-18T11:19:10.905Z,107072.00
2019-05-18T11:20:10.816Z,99008.00
2019-05-18T11:21:10.751Z,92800.00
2019-05-18T11:22:10.655Z,102112.00
2019-05-18T11:23:10.562Z,95072.00
2019-05-18T11:24:10.467Z,98400.00
2019-05-18T11:25:10.380Z,107584.00
2019-05-18T11:26:10.292Z,110560.00
2019-05-18T11:27:10.222Z,117856.00
2019-05-18T11:28:10.119Z,104704.00
2019-05-18T11:29:10.031Z,110720.00
2019-05-18T11:30:10.271Z,113312.00
2019-05-18T11:31:09.868Z,102528.00
2019-05-18T11:32:09.786Z,102976.00
2019-05-18T11:33:09.683Z,94464.00
2019-05-18T11:34:09.596Z,95616.00
2019-05-18T11:35:09.513Z,98496.00
2019-05-18T11:36:09.421Z,100352.00
2019-05-18T11:37:09.350Z,91296.00
2019-05-18T11:38:09.249Z,89280.00
2019-05-18T11:39:09.187Z,103392.00
2019-05-18T11:40:09.077Z,102816.00
2019-05-18T11:41:08.987Z,107680.00
2019-05-18T11:42:08.914Z,105344.00
2019-05-18T11:43:08.815Z,107232.00
2019-05-18T11:44:10.774Z,101376.00
2019-05-18T11:45:08.642Z,104512.00
2019-05-18T11:46:08.562Z,108832.00
2019-05-18T11:47:08.481Z,100960.00
2019-05-18T11:48:08.391Z,102464.00
2019-05-18T11:49:08.295Z,106368.00
2019-05-18T11:50:08.217Z,114720.00
2019-05-18T11:51:08.121Z,107456.00
2019-05-18T11:52:08.047Z,106432.00
2019-05-18T11:53:07.949Z,106400.00
2019-05-18T11:54:07.884Z,103168.00
2019-05-18T11:55:07.774Z,103424.00
2019-05-18T11:56:07.688Z,105952.00
2019-05-18T11:57:07.716Z,110272.00
2019-05-18T11:58:07.532Z,110816.00
2019-05-18T11:59:07.429Z,108736.00
2019-05-18T12:00:07.343Z,110784.00
2019-05-18T12:01:07.256Z,109920.00
2019-05-18T12:02:07.171Z,109632.00
2019-05-18T12:03:07.096Z,112480.00
2019-05-18T12:04:06.997Z,116512.00
2019-05-18T12:05:06.910Z,106560.00
2019-05-18T12:06:06.828Z,101600.00